createdAt,value
2022-08-01T00:01:39.808Z,4.63
2022-08-01T00:04:07.207Z,5.35
2022-08-01T00:06:34.607Z,9.05
2022-08-01T00:09:02.949Z,5.90
2022-08-01T00:11:30.690Z,6.65
2022-08-01T00:13:58.508Z,8.18
2022-08-01T00:16:25.921Z,4.07
2022-08-01T00:18:55.302Z,9.63
2022-08-01T00:21:23.019Z,7.03
2022-08-01T00:23:50.445Z,7.18
2022-08-01T00:26:17.799Z,5.25
2022-08-01T00:28:45.381Z,5.05
2022-08-01T00:31:13.706Z,5.93
2022-08-01T00:33:41.032Z,4.90
2022-08-01T00:36:08.388Z,6.55
2022-08-01T00:38:35.811Z,6.80
2022-08-01T00:41:04.605Z,6.20
2022-08-01T00:43:32.056Z,3.40
2022-08-01T00:45:59.816Z,3.92
2022-08-01T00:48:27.341Z,6.25
2022-08-01T00:50:54.693Z,4.68
2022-08-01T00:53:21.975Z,4.70
2022-08-01T00:55:49.536Z,6.93
2022-08-01T00:58:17.816Z,11.05
2022-08-01T01:00:52.704Z,3.60
2022-08-01T01:03:57.904Z,8.52
2022-08-01T01:06:32.538Z,6.95
2022-08-01T01:09:18.603Z,6.85
2022-08-01T01:12:24.509Z,5.43
2022-08-01T01:15:03.813Z,5.32
2022-08-01T01:17:49.927Z,7.22
2022-08-01T01:20:18.896Z,4.20
2022-08-01T01:22:59.478Z,3.63
2022-08-01T01:25:38.836Z,6.30
2022-08-01T01:28:24.208Z,3.90
2022-08-01T01:30:53.240Z,7.88
2022-08-01T01:33:22.354Z,8.30
2022-08-01T01:35:54.084Z,4.68
2022-08-01T01:38:23.951Z,4.15
2022-08-01T01:40:53.341Z,3.42
2022-08-01T01:43:21.740Z,6.70
2022-08-01T01:45:57.333Z,6.22
2022-08-01T01:48:25.324Z,4.38
2022-08-01T01:50:53.543Z,3.65
2022-08-01T01:53:22.744Z,2.58
2022-08-01T01:55:53.004Z,5.32
2022-08-01T01:58:21.600Z,6.50
2022-08-01T02:00:51.232Z,5.45
2022-08-01T02:03:20.829Z,4.65
2022-08-01T02:05:49.010Z,4.00
2022-08-01T02:08:17.760Z,5.38
2022-08-01T02:11:06.484Z,5.22
2022-08-01T02:13:36.434Z,3.15
2022-08-01T02:16:04.623Z,8.02
2022-08-01T02:18:33.973Z,5.05
2022-08-01T02:21:06.283Z,7.00
2022-08-01T02:23:35.304Z,5.78
2022-08-01T02:26:10.816Z,5.63
2022-08-01T02:29:07.047Z,4.95
2022-08-01T02:31:37.165Z,5.72
2022-08-01T02:34:07.514Z,7.88
2022-08-01T02:36:38.486Z,6.05
2022-08-01T02:39:19.966Z,5.90
2022-08-01T02:41:49.930Z,5.25
2022-08-01T02:44:26.110Z,8.25
2022-08-01T02:46:57.498Z,8.00
2022-08-01T02:49:25.815Z,5.95
2022-08-01T02:51:57.011Z,6.60
2022-08-01T02:54:24.934Z,6.10
2022-08-01T02:56:53.049Z,6.43
2022-08-01T02:59:26.581Z,9.30
2022-08-01T03:02:00.869Z,8.15
2022-08-01T03:11:46.481Z,9.77
2022-08-01T03:14:37.740Z,7.93
2022-08-01T03:17:08.254Z,5.07
2022-08-01T03:19:38.952Z,9.30
2022-08-01T03:38:14.696Z,12.07
2022-08-01T03:40:46.636Z,11.02
2022-08-01T03:43:36.579Z,10.20
2022-08-01T03:46:09.518Z,8.05
2022-08-01T03:48:41.142Z,8.93
2022-08-01T03:51:09.953Z,9.50
2022-08-01T03:53:42.366Z,9.68
2022-08-01T03:56:10.836Z,7.85
2022-08-01T03:58:40.453Z,7.85
2022-08-01T04:01:15.595Z,10.15
2022-08-01T04:03:44.877Z,6.95
2022-08-01T04:06:15.556Z,7.25
2022-08-01T04:08:43.067Z,7.30
2022-08-01T04:11:11.287Z,12.23
2022-08-01T04:13:38.711Z,8.82
2022-08-01T04:16:18.213Z,8.20
2022-08-01T04:18:45.911Z,7.93
2022-08-01T04:21:14.248Z,5.85
2022-08-01T04:23:42.975Z,6.50
2022-08-01T04:26:11.406Z,8.80
2022-08-01T04:28:39.525Z,5.90
2022-08-01T04:31:10.810Z,5.20
2022-08-01T04:33:40.291Z,5.80
2022-08-01T04:36:08.495Z,11.77
2022-08-01T04:38:37.939Z,6.22
2022-08-01T04:41:09.483Z,8.60
2022-08-01T04:43:38.179Z,5.40
2022-08-01T04:46:07.805Z,7.50
2022-08-01T04:48:38.165Z,8.63
2022-08-01T04:51:08.331Z,5.55
2022-08-01T04:53:35.890Z,7.38
2022-08-01T04:56:03.590Z,6.47
2022-08-01T04:58:31.480Z,6.88
2022-08-01T05:01:00.471Z,5.65
2022-08-01T05:03:27.829Z,8.70
2022-08-01T05:05:55.474Z,7.28
2022-08-01T05:08:22.807Z,7.55
2022-08-01T05:10:50.329Z,6.68
2022-08-01T05:13:17.833Z,6.95
2022-08-01T05:15:45.178Z,8.45
2022-08-01T05:18:12.743Z,7.10
2022-08-01T05:20:42.664Z,10.50
2022-08-01T05:23:10.760Z,7.22
2022-08-01T05:25:58.994Z,7.32
2022-08-01T05:28:26.672Z,7.35
2022-08-01T05:30:56.127Z,7.70
2022-08-01T05:33:23.932Z,8.02
2022-08-01T05:35:52.133Z,7.68
2022-08-01T05:38:19.617Z,11.55
2022-08-01T05:40:47.050Z,10.38
2022-08-01T05:43:14.565Z,7.35
2022-08-01T05:45:42.807Z,8.10
2022-08-01T05:48:10.211Z,9.27
2022-08-01T05:50:38.795Z,10.95
2022-08-01T05:53:06.234Z,10.15
2022-08-01T05:55:33.605Z,8.35
2022-08-01T05:58:00.922Z,8.82
2022-08-01T06:00:28.636Z,8.18
2022-08-01T06:02:56.010Z,9.60
2022-08-01T06:05:23.513Z,10.40
2022-08-01T06:07:51.925Z,10.43
2022-08-01T06:10:19.364Z,8.80
2022-08-01T06:12:46.911Z,11.15
2022-08-01T06:15:14.698Z,8.45
2022-08-01T06:17:42.366Z,11.95
2022-08-01T06:20:10.586Z,10.50
2022-08-01T06:22:44.224Z,9.38
2022-08-01T06:25:22.253Z,7.53
2022-08-01T06:27:50.679Z,9.98
2022-08-01T06:30:22.790Z,10.90
2022-08-01T06:32:50.301Z,13.70
2022-08-01T06:35:17.756Z,10.15
2022-08-01T06:37:48.146Z,8.65
2022-08-01T06:40:17.457Z,7.43
2022-08-01T06:42:47.966Z,8.27
2022-08-01T06:45:15.976Z,8.50
2022-08-01T06:47:50.833Z,8.77
2022-08-01T06:50:18.526Z,10.90
2022-08-01T06:52:46.103Z,11.23
2022-08-01T06:55:16.496Z,11.20
2022-08-01T06:57:51.401Z,8.98
2022-08-01T07:00:23.363Z,9.10
2022-08-01T07:02:55.888Z,10.48
2022-08-01T07:05:23.531Z,9.07
2022-08-01T07:07:51.926Z,9.85
2022-08-01T07:10:20.507Z,9.68
2022-08-01T07:12:48.520Z,12.35
2022-08-01T07:15:16.772Z,10.98
2022-08-01T07:17:44.560Z,9.40
2022-08-01T07:20:16.109Z,10.20
2022-08-01T07:22:48.151Z,9.77
2022-08-01T07:25:15.919Z,8.98
2022-08-01T07:27:43.366Z,8.88
2022-08-01T07:30:11.243Z,12.20
2022-08-01T07:35:46.160Z,9.70
2022-08-01T07:38:13.891Z,8.82
2022-08-01T07:40:43.107Z,9.32
2022-08-01T07:43:16.177Z,14.40
2022-08-01T07:45:46.485Z,8.43
2022-08-01T07:48:14.054Z,10.00
2022-08-01T07:50:41.393Z,8.20
2022-08-01T07:53:11.196Z,12.07
2022-08-01T07:55:38.554Z,11.52
2022-08-01T07:58:08.930Z,8.95
2022-08-01T08:00:36.287Z,8.77
2022-08-01T08:03:03.619Z,9.10
2022-08-01T08:05:52.847Z,7.45
2022-08-01T08:08:19.291Z,7.63
2022-08-01T08:10:49.425Z,11.93
2022-08-01T08:13:18.111Z,8.02
2022-08-01T08:15:48.218Z,11.88
2022-08-01T08:18:16.612Z,8.75
2022-08-01T08:20:44.621Z,11.38
2022-08-01T08:23:43.137Z,12.35
2022-08-01T08:26:14.576Z,8.73
2022-08-01T08:28:41.929Z,8.38
2022-08-01T08:31:25.711Z,9.02
2022-08-01T08:33:56.882Z,8.95
2022-08-01T08:36:28.584Z,9.02
2022-08-01T08:41:42.819Z,9.18
2022-08-01T08:44:10.950Z,10.15
2022-08-01T08:46:46.271Z,7.22
2022-08-01T08:49:18.039Z,8.35
2022-08-01T08:51:49.158Z,8.75
2022-08-01T08:54:18.506Z,7.95
2022-08-01T08:56:47.528Z,9.68
2022-08-01T08:59:15.477Z,9.93
2022-08-01T09:01:44.011Z,7.07
2022-08-01T09:04:14.400Z,9.68
2022-08-01T09:06:44.906Z,9.27
2022-08-01T09:09:12.205Z,9.73
2022-08-01T09:11:39.606Z,7.68
2022-08-01T09:14:12.124Z,7.07
2022-08-01T09:16:48.316Z,7.55
2022-08-01T09:19:40.281Z,8.82
2022-08-01T09:22:11.931Z,7.10
2022-08-01T09:24:40.402Z,9.65
2022-08-01T09:27:26.575Z,8.05
2022-08-01T09:30:01.638Z,10.98
2022-08-01T09:32:35.710Z,7.93
2022-08-01T09:35:30.125Z,10.60
2022-08-01T09:38:18.690Z,8.70
2022-08-01T09:41:01.440Z,10.23
2022-08-01T09:43:31.368Z,9.50
2022-08-01T09:46:00.003Z,8.65
2022-08-01T09:48:29.847Z,10.63
2022-08-01T09:51:04.223Z,8.15
2022-08-01T09:53:51.361Z,9.43
2022-08-01T09:56:22.308Z,12.38
2022-08-01T09:58:58.863Z,9.52
2022-08-01T10:01:37.130Z,10.60
2022-08-01T10:04:09.643Z,11.50
2022-08-01T10:06:39.499Z,10.55
2022-08-01T10:09:06.920Z,10.68
2022-08-01T10:11:36.197Z,13.30
2022-08-01T10:14:04.204Z,12.45
2022-08-01T10:16:31.991Z,9.93
2022-08-01T10:19:00.139Z,10.95
2022-08-01T10:21:56.471Z,9.20
2022-08-01T10:24:18.783Z,8.70
2022-08-01T10:26:49.397Z,11.23
2022-08-01T10:29:44.923Z,9.60
2022-08-01T10:32:10.175Z,9.57
2022-08-01T10:34:38.456Z,9.48
2022-08-01T10:37:15.910Z,11.25
2022-08-01T10:39:43.925Z,10.90
2022-08-01T10:42:15.669Z,9.40
2022-08-01T10:44:43.722Z,14.50
2022-08-01T10:47:19.453Z,11.88
2022-08-01T10:49:56.571Z,11.20
2022-08-01T10:52:26.463Z,11.98
2022-08-01T10:55:07.259Z,12.15
2022-08-01T11:10:34.386Z,19.20
2022-08-01T11:13:04.882Z,18.52
2022-08-01T11:15:34.784Z,20.20
2022-08-01T11:18:05.761Z,25.35
2022-08-01T11:20:39.522Z,27.90
2022-08-01T11:23:16.647Z,25.05
2022-08-01T11:26:05.813Z,27.85
2022-08-01T11:28:36.766Z,29.50
2022-08-01T11:31:15.072Z,35.90
2022-08-01T11:33:45.821Z,33.33
2022-08-01T11:36:55.387Z,25.77
2022-08-01T11:39:15.550Z,33.85
2022-08-01T11:41:44.253Z,36.13
2022-08-01T11:44:16.179Z,26.30
2022-08-01T11:47:13.673Z,18.27
2022-08-01T11:49:50.047Z,21.52
2022-08-01T11:52:25.873Z,15.52
2022-08-01T11:54:57.718Z,17.00
2022-08-01T11:57:34.637Z,37.75
2022-08-01T12:00:19.674Z,39.00
2022-08-01T12:02:49.151Z,33.63
2022-08-01T12:05:24.789Z,28.85
2022-08-01T12:07:54.142Z,24.25
2022-08-01T12:10:27.911Z,25.67
2022-08-01T12:15:45.847Z,19.35
2022-08-01T12:18:14.841Z,20.88
2022-08-01T12:20:56.206Z,19.20
2022-08-01T12:23:28.785Z,19.90
2022-08-01T12:25:56.583Z,22.55
2022-08-01T12:28:27.312Z,28.30
2022-08-01T12:30:56.064Z,20.92
2022-08-01T12:33:24.087Z,20.50
2022-08-01T12:35:53.869Z,25.48
2022-08-01T12:38:26.887Z,26.60
2022-08-01T12:40:55.052Z,24.27
2022-08-01T12:43:38.362Z,22.65
2022-08-01T12:46:12.572Z,20.52
2022-08-01T12:48:40.116Z,24.70
2022-08-01T12:51:18.641Z,25.83
2022-08-01T12:53:49.881Z,28.50
2022-08-01T12:56:35.642Z,25.80
2022-08-01T12:59:27.847Z,28.90
2022-08-01T13:01:59.561Z,28.65
2022-08-01T13:04:28.137Z,30.42
2022-08-01T13:06:57.130Z,30.70
2022-08-01T13:09:25.615Z,33.83
2022-08-01T13:12:03.658Z,38.65
2022-08-01T13:14:32.221Z,31.67
2022-08-01T13:17:00.043Z,39.47
2022-08-01T13:19:44.451Z,35.85
2022-08-01T13:22:12.812Z,29.20
2022-08-01T13:24:40.447Z,27.58
2022-08-01T13:27:08.423Z,27.38
2022-08-01T13:32:32.442Z,26.58
2022-08-01T13:35:25.650Z,27.15
2022-08-01T13:37:57.923Z,29.67
2022-08-01T13:40:31.502Z,29.15
2022-08-01T13:43:03.812Z,30.02
2022-08-01T13:45:34.242Z,28.20
2022-08-01T13:48:12.706Z,27.70
2022-08-01T13:50:57.419Z,25.98
2022-08-01T13:53:35.360Z,24.35
2022-08-01T13:56:03.118Z,42.22
2022-08-01T13:58:30.801Z,26.88
2022-08-01T14:00:58.220Z,23.38
2022-08-01T14:03:26.580Z,23.67
2022-08-01T14:06:02.644Z,21.90
2022-08-01T14:08:30.534Z,25.42
2022-08-01T14:11:02.302Z,23.10
2022-08-01T14:13:40.205Z,24.92
2022-08-01T14:16:15.518Z,28.25
2022-08-01T14:18:44.250Z,25.17
2022-08-01T14:21:23.573Z,24.58
2022-08-01T14:23:52.524Z,31.60
2022-08-01T14:26:23.072Z,26.92
2022-08-01T14:28:53.646Z,27.30
2022-08-01T14:31:21.868Z,25.30
2022-08-01T14:33:51.743Z,24.00
2022-08-01T14:36:29.282Z,24.02
2022-08-01T14:39:05.487Z,21.65
2022-08-01T14:41:35.355Z,18.08
2022-08-01T14:44:04.662Z,22.02
2022-08-01T14:46:34.198Z,17.83
2022-08-01T14:49:02.542Z,17.58
2022-08-01T14:51:35.196Z,16.77
2022-08-01T14:54:03.904Z,22.55
2022-08-01T14:56:31.865Z,20.85
2022-08-01T14:59:00.679Z,26.20
2022-08-01T15:01:28.397Z,20.25
2022-08-01T15:03:57.128Z,21.15
2022-08-01T15:06:24.604Z,25.25
2022-08-01T15:08:55.828Z,22.27
2022-08-01T15:11:27.191Z,23.90
2022-08-01T15:14:22.593Z,24.33
2022-08-01T15:16:50.394Z,22.02
2022-08-01T15:19:18.601Z,25.75
2022-08-01T15:21:49.468Z,26.38
2022-08-01T15:24:17.477Z,28.55
2022-08-01T15:26:47.092Z,22.50
2022-08-01T15:29:18.238Z,29.08
2022-08-01T15:31:46.700Z,22.73
2022-08-01T15:34:18.145Z,15.68
2022-08-01T15:36:48.639Z,18.25
2022-08-01T15:39:25.453Z,19.92
2022-08-01T15:41:54.247Z,20.35
2022-08-01T15:44:25.809Z,18.98
2022-08-01T15:46:54.546Z,18.50
2022-08-01T15:49:25.277Z,19.52
2022-08-01T15:51:56.344Z,15.90
2022-08-01T15:54:29.811Z,16.23
2022-08-01T15:57:04.228Z,17.48
2022-08-01T15:59:33.547Z,13.85
2022-08-01T16:02:04.720Z,14.20
2022-08-01T16:04:33.920Z,14.23
2022-08-01T16:07:02.149Z,14.80
2022-08-01T16:09:29.846Z,14.52
2022-08-01T16:11:58.391Z,14.18
2022-08-01T16:14:26.286Z,12.88
2022-08-01T16:16:56.529Z,11.00
2022-08-01T16:19:24.429Z,12.00
2022-08-01T16:21:52.601Z,12.23
2022-08-01T16:24:21.623Z,17.95
2022-08-01T16:26:52.379Z,13.30
2022-08-01T16:29:23.379Z,13.90
2022-08-01T16:32:06.719Z,13.13
2022-08-01T16:34:41.414Z,18.73
2022-08-01T16:37:15.242Z,19.88
2022-08-01T16:39:42.839Z,29.45
2022-08-01T16:42:13.477Z,25.23
2022-08-01T16:44:41.642Z,32.60
2022-08-01T16:47:10.090Z,26.40
2022-08-01T16:49:38.954Z,20.17
2022-08-01T16:52:09.929Z,14.18
2022-08-01T16:54:41.233Z,17.08
2022-08-01T16:57:13.449Z,20.60
2022-08-01T16:59:57.848Z,15.15
2022-08-01T17:02:34.398Z,16.10
2022-08-01T17:05:08.378Z,20.23
2022-08-01T17:07:56.506Z,19.88
2022-08-01T17:10:42.490Z,21.95
2022-08-01T17:13:17.585Z,14.13
2022-08-01T17:15:48.166Z,13.85
2022-08-01T17:18:17.438Z,17.13
2022-08-01T17:21:01.820Z,15.82
2022-08-01T17:23:51.319Z,16.65
2022-08-01T17:26:25.749Z,14.75
2022-08-01T17:29:07.384Z,12.25
2022-08-01T17:34:27.501Z,16.17
2022-08-01T17:37:07.489Z,18.60
2022-08-01T17:39:47.661Z,19.10
2022-08-01T17:42:15.979Z,17.88
2022-08-01T17:44:52.082Z,19.85
2022-08-01T17:47:47.965Z,12.77
2022-08-01T17:50:14.256Z,11.73
2022-08-01T17:55:58.870Z,9.70
2022-08-01T17:58:52.275Z,9.00
2022-08-01T18:01:20.925Z,18.75
2022-08-01T18:03:58.800Z,9.68
2022-08-01T18:06:29.709Z,10.73
2022-08-01T18:12:09.196Z,8.50
2022-08-01T18:14:49.191Z,8.25
2022-08-01T18:17:20.262Z,5.25
2022-08-01T18:22:45.188Z,11.60
2022-08-01T18:25:17.551Z,7.20
2022-08-01T18:28:23.198Z,5.55
2022-08-01T18:30:37.839Z,5.97
2022-08-01T18:33:09.675Z,7.53
2022-08-01T18:35:52.153Z,8.38
2022-08-01T18:38:24.186Z,5.03
2022-08-01T18:41:02.942Z,4.85
2022-08-01T18:43:33.606Z,5.53
2022-08-01T18:46:06.666Z,7.32
2022-08-01T18:48:35.844Z,7.88
2022-08-01T18:51:12.595Z,8.13
2022-08-01T18:56:33.366Z,5.63
2022-08-01T18:59:11.660Z,5.40
2022-08-01T19:01:41.490Z,7.80
2022-08-01T19:04:13.988Z,5.97
2022-08-01T19:06:47.488Z,6.15
2022-08-01T19:09:20.487Z,8.02
2022-08-01T19:11:51.182Z,6.95
2022-08-01T19:14:20.509Z,8.88
2022-08-01T19:16:49.031Z,8.02
2022-08-01T19:19:24.753Z,7.43
2022-08-01T19:21:56.106Z,8.75
2022-08-01T19:24:26.190Z,7.95
2022-08-01T19:27:05.068Z,8.02
2022-08-01T19:29:42.003Z,8.73
2022-08-01T19:32:12.775Z,13.27
2022-08-01T19:35:26.039Z,11.15
2022-08-01T19:38:26.753Z,12.05
2022-08-01T19:41:35.505Z,11.23
2022-08-01T19:43:59.013Z,14.55
2022-08-01T19:46:26.615Z,16.65
2022-08-01T19:48:56.183Z,16.95
2022-08-01T19:51:33.063Z,14.02
2022-08-01T19:54:06.476Z,11.35
2022-08-01T19:56:40.703Z,14.95
2022-08-01T19:59:08.526Z,12.93
2022-08-01T20:01:37.092Z,11.77
2022-08-01T20:04:05.201Z,15.00
2022-08-01T20:06:35.436Z,15.98
2022-08-01T20:09:04.740Z,16.10
2022-08-01T20:11:37.964Z,14.40
2022-08-01T20:14:16.473Z,16.67
2022-08-01T20:16:46.625Z,14.75
2022-08-01T20:19:17.858Z,14.75
2022-08-01T20:22:02.323Z,11.52
2022-08-01T20:24:41.261Z,12.73
2022-08-01T20:27:15.071Z,12.75
2022-08-01T20:29:46.883Z,12.85
2022-08-01T20:32:17.586Z,11.95
2022-08-01T20:34:45.254Z,14.65
2022-08-01T20:37:14.712Z,12.38
2022-08-01T20:39:45.108Z,15.70
2022-08-01T20:42:14.398Z,16.02
2022-08-01T20:44:50.542Z,14.43
2022-08-01T20:47:18.207Z,15.77
2022-08-01T20:49:47.780Z,16.67
2022-08-01T20:52:16.885Z,14.73
2022-08-01T20:54:45.382Z,13.93
2022-08-01T20:57:25.592Z,13.75
2022-08-01T21:00:02.554Z,13.52
2022-08-01T21:02:35.936Z,11.93
2022-08-01T21:05:08.900Z,13.38
2022-08-01T21:07:42.882Z,15.10
2022-08-01T21:10:13.910Z,12.85
2022-08-01T21:12:50.222Z,14.00
2022-08-01T21:15:30.336Z,14.73
2022-08-01T21:18:07.836Z,11.13
2022-08-01T21:20:40.011Z,10.85
2022-08-01T21:23:26.930Z,12.18
2022-08-01T21:25:58.209Z,11.70
2022-08-01T21:28:27.306Z,11.00
2022-08-01T21:30:59.063Z,11.38
2022-08-01T21:33:28.666Z,11.20
2022-08-01T21:36:02.627Z,10.98
2022-08-01T21:38:40.392Z,13.00
2022-08-01T21:41:08.657Z,13.02
2022-08-01T21:43:37.078Z,17.73
2022-08-01T21:46:07.253Z,11.93
2022-08-01T21:48:35.922Z,12.75
2022-08-01T21:51:28.022Z,12.85
2022-08-01T21:54:10.066Z,14.73
2022-08-01T21:56:43.992Z,16.83
2022-08-01T21:59:17.605Z,15.02
2022-08-01T22:01:54.834Z,15.48
2022-08-01T22:04:34.376Z,15.52
2022-08-01T22:07:03.335Z,16.92
2022-08-01T22:09:38.961Z,15.63
2022-08-01T22:12:07.853Z,20.13
2022-08-01T22:14:43.349Z,19.42
2022-08-01T22:17:14.576Z,17.60
2022-08-01T22:19:45.052Z,19.17
2022-08-01T22:22:44.525Z,21.40
2022-08-01T22:25:02.831Z,15.48
2022-08-01T22:28:08.596Z,18.05
2022-08-01T22:30:18.921Z,18.17
2022-08-01T22:33:07.873Z,16.55
2022-08-01T22:35:35.679Z,15.25
2022-08-01T22:38:07.647Z,11.68
2022-08-01T22:40:40.509Z,11.95
2022-08-01T22:43:17.384Z,10.93
2022-08-01T22:46:06.661Z,9.55
2022-08-01T22:49:09.429Z,10.75
2022-08-01T22:51:55.781Z,9.63
2022-08-01T22:54:30.646Z,8.55
2022-08-01T22:57:01.212Z,8.40
2022-08-01T22:59:42.883Z,9.73
2022-08-01T23:02:16.308Z,8.00
2022-08-01T23:04:46.628Z,10.65
2022-08-01T23:07:20.121Z,6.10
2022-08-01T23:09:53.785Z,7.35
2022-08-01T23:12:24.551Z,7.13
2022-08-01T23:14:57.896Z,6.78
2022-08-01T23:17:29.301Z,7.50
2022-08-01T23:20:02.108Z,5.53
2022-08-01T23:22:31.625Z,6.53
2022-08-01T23:25:04.031Z,3.88
2022-08-01T23:27:51.749Z,7.70
2022-08-01T23:30:27.784Z,5.55
2022-08-01T23:32:55.417Z,7.05
2022-08-01T23:35:24.349Z,9.00
2022-08-01T23:37:52.511Z,6.95
2022-08-01T23:40:20.158Z,8.00
2022-08-01T23:42:47.486Z,7.90
2022-08-01T23:45:14.964Z,9.10
2022-08-01T23:47:42.747Z,8.70
2022-08-01T23:50:11.542Z,10.70
2022-08-01T23:52:48.613Z,12.13
2022-08-01T23:55:33.382Z,8.50
2022-08-01T23:58:07.045Z,8.60
